Time;durP1;ratioP1;P1;durP2;ratioP2;P2;SDS_P1;SDS_P2;PMS_P1;PMS_P2;Temp;Humidity;BMP_temperature;BMP_pressure;BME280_temperature;BME280_humidity;BME280_pressure;Samples;Min_cycle;Max_cycle;Signal;HPM_P1;HPM_P2
2023/10/02 00:03:39;;;;;;;;;19.00;15.50;;;;;22.59;45.24;101565.94;5060831;28;45300;-65
2023/10/02 00:06:05;;;;;;;;;19.50;13.25;;;;;22.60;45.65;101569.47;5042601;28;48048;-65
2023/10/02 00:08:42;;;;;;;;;26.00;14.25;;;;;22.54;45.46;101562.63;5060528;28;45532;-65
2023/10/02 00:14:18;;;;;;;;;9.75;7.00;;;;;22.46;45.71;101568.38;5066883;28;45167;-65
2023/10/02 00:17:03;;;;;;;;;19.25;17.00;;;;;22.45;45.85;101571.13;5060410;28;45264;-65
2023/10/02 00:19:37;;;;;;;;;19.50;15.00;;;;;22.38;45.98;101565.25;5060570;28;45236;-65
2023/10/02 00:22:06;;;;;;;;;12.75;12.00;;;;;22.39;45.86;101569.66;5060411;28;45251;-65
2023/10/02 00:24:33;;;;;;;;;19.25;17.25;;;;;22.33;45.78;101568.09;5050471;28;45293;-65
2023/10/02 00:26:58;;;;;;;;;21.00;16.25;;;;;22.33;45.88;101568.09;5028971;28;47344;-65
2023/10/02 00:29:26;;;;;;;;;18.00;16.75;;;;;22.31;45.71;101569.97;5042426;28;46211;-65
2023/10/02 00:31:52;;;;;;;;;20.00;17.75;;;;;22.31;45.89;101569.97;5060625;28;45239;-65
2023/10/02 00:34:30;;;;;;;;;18.00;14.50;;;;;22.28;45.99;101567.47;5060419;28;45248;-65
2023/10/02 00:37:00;;;;;;;;;11.75;11.75;;;;;22.24;46.55;101563.22;5058848;28;47207;-65
2023/10/02 00:39:27;;;;;;;;;17.50;13.50;;;;;22.14;46.01;101549.44;5059990;28;45324;-65
2023/10/02 00:42:15;;;;;;;;;16.75;13.00;;;;;22.23;46.07;101561.50;5059282;28;45325;-65
2023/10/02 00:44:56;;;;;;;;;16.00;13.25;;;;;22.19;45.89;101568.81;5060119;28;45460;-65
2023/10/02 00:47:42;;;;;;;;;17.50;15.25;;;;;22.16;45.95;101560.94;5060005;28;45514;-65
2023/10/02 00:50:22;;;;;;;;;23.75;17.25;;;;;22.14;46.27;101565.50;5041943;28;45298;-65
2023/10/02 00:53:06;;;;;;;;;17.75;14.75;;;;;22.12;46.24;101561.16;5041530;28;45326;-65
2023/10/02 00:55:34;;;;;;;;;19.50;15.50;;;;;22.09;46.06;101562.19;5055063;28;45296;-65
2023/10/02 00:58:02;;;;;;;;;20.25;17.00;;;;;22.07;46.53;101564.94;5059669;28;46480;-65
2023/10/02 01:00:31;;;;;;;;;19.25;16.25;;;;;22.03;46.22;101560.66;5059884;28;45201;-65
2023/10/02 01:02:59;;;;;;;;;22.00;18.25;;;;;22.04;46.71;101561.56;5060085;28;45480;-65
2023/10/02 01:05:30;;;;;;;;;11.50;11.25;;;;;22.01;46.17;101556.34;5059955;28;45495;-65
2023/10/02 01:07:58;;;;;;;;;15.25;13.00;;;;;22.00;46.47;101557.28;5041465;28;47174;-65
2023/10/02 01:10:29;;;;;;;;;15.75;15.00;;;;;21.95;46.79;101552.16;5059662;28;45324;-65
2023/10/02 01:13:01;;;;;;;;;20.50;14.50;;;;;21.92;46.42;101553.19;5064587;28;45258;-65
2023/10/02 01:15:27;;;;;;;;;19.00;14.50;;;;;21.91;46.58;101558.59;5060023;28;45272;-65
2023/10/02 01:17:54;;;;;;;;;14.25;13.50;;;;;21.91;46.63;101558.59;5059714;28;45245;-65
2023/10/02 01:20:21;;;;;;;;;21.00;18.25;;;;;21.88;46.29;101564.97;5041522;28;45198;-65
2023/10/02 01:22:52;;;;;;;;;19.00;15.00;;;;;21.86;46.47;101560.63;5041666;28;45345;-65
2023/10/02 01:25:23;;;;;;;;;22.25;16.75;;;;;21.86;46.33;101561.50;5028061;28;45219;-65
2023/10/02 01:27:51;;;;;;;;;19.75;14.75;;;;;21.84;46.80;101559.84;5053702;28;45505;-65
2023/10/02 01:30:20;;;;;;;;;15.50;15.00;;;;;21.79;46.33;101551.19;5041603;28;45289;-65
2023/10/02 01:35:46;;;;;;;;;17.25;14.50;;;;;21.77;46.45;101555.75;5059478;28;45242;-65
2023/10/02 01:38:15;;;;;;;;;15.50;15.25;;;;;21.69;46.84;101546.28;5059138;28;45566;-65
2023/10/02 01:40:54;;;;;;;;;17.25;16.00;;;;;21.71;46.92;101549.75;5059357;28;45161;-65
2023/10/02 01:43:27;;;;;;;;;17.25;13.75;;;;;21.69;46.72;101548.09;5030013;28;45321;-65
2023/10/02 01:46:00;;;;;;;;;19.75;16.00;;;;;21.67;46.71;101545.50;5059269;28;45344;-65
2023/10/02 01:48:44;;;;;;;;;16.25;15.25;;;;;21.66;47.10;101545.53;5037381;28;48007;-65
2023/10/02 01:51:20;;;;;;;;;17.75;16.50;;;;;21.59;47.15;101539.63;5057235;28;45262;-65
2023/10/02 01:53:56;;;;;;;;;18.50;16.50;;;;;21.58;46.93;101541.47;5035903;28;45470;-65
2023/10/02 01:56:29;;;;;;;;;21.25;15.50;;;;;21.58;46.68;101543.25;5062392;28;45327;-65
2023/10/02 01:59:09;;;;;;;;;15.75;14.50;;;;;21.57;47.10;101544.19;5044069;28;45283;-65
2023/10/02 02:01:46;;;;;;;;;18.75;14.75;;;;;21.52;46.93;101533.69;5061493;28;45385;-65
2023/10/02 02:04:14;;;;;;;;;19.25;14.00;;;;;21.53;46.86;101540.75;5062763;28;45231;-65
2023/10/02 02:06:51;;;;;;;;;22.00;18.00;;;;;21.52;47.43;101539.03;5041185;28;45604;-65
2023/10/02 02:09:23;;;;;;;;;15.00;13.50;;;;;21.51;47.04;101531.06;5040961;28;47080;-65
2023/10/02 02:12:05;;;;;;;;;19.50;16.00;;;;;21.48;47.27;101523.22;5055977;28;45276;-65
2023/10/02 02:14:34;;;;;;;;;14.50;12.00;;;;;21.47;47.19;101532.16;5069297;28;45502;-65
2023/10/02 02:17:01;;;;;;;;;16.50;15.25;;;;;21.46;47.58;101533.97;5062366;28;45272;-65
2023/10/02 02:19:28;;;;;;;;;16.75;14.00;;;;;21.42;47.40;101529.69;5040953;28;48458;-65
2023/10/02 02:21:56;;;;;;;;;15.25;15.25;;;;;21.42;47.00;101521.69;5059610;28;45400;-65
2023/10/02 02:24:25;;;;;;;;;14.75;11.25;;;;;21.38;47.00;101523.66;5035723;28;45351;-65
2023/10/02 02:26:57;;;;;;;;;18.00;12.25;;;;;21.37;47.01;101529.06;5043327;28;45637;-65
2023/10/02 02:29:23;;;;;;;;;21.25;14.50;;;;;21.32;47.63;101521.28;5043559;28;47289;-65
2023/10/02 02:31:50;;;;;;;;;15.00;12.75;;;;;21.32;47.40;101523.94;5062287;28;45385;-65
2023/10/02 02:34:16;;;;;;;;;19.25;12.25;;;;;21.28;47.26;101519.66;5062491;28;45216;-65
2023/10/02 02:36:46;;;;;;;;;18.25;14.50;;;;;21.21;47.58;101507.56;5062069;28;45431;-65
2023/10/02 02:39:15;;;;;;;;;16.75;13.25;;;;;21.22;47.61;101519.94;5043840;28;48000;-65
2023/10/02 02:42:08;;;;;;;;;17.25;13.00;;;;;21.19;47.35;101517.44;5062066;28;45233;-65
2023/10/02 02:44:43;;;;;;;;;17.00;13.75;;;;;21.17;47.81;101516.63;5060335;28;45475;-65
2023/10/02 02:47:09;;;;;;;;;18.75;15.00;;;;;21.15;47.69;101522.03;5061970;28;45216;-65
2023/10/02 02:49:50;;;;;;;;;14.00;12.00;;;;;21.15;47.59;101527.38;5061832;28;45507;-65
2023/10/02 02:52:24;;;;;;;;;14.75;12.75;;;;;21.12;47.75;101519.53;5061943;28;45294;-65
2023/10/02 02:54:58;;;;;;;;;19.00;16.25;;;;;21.11;47.69;101521.31;5035458;28;45285;-65
2023/10/02 02:57:29;;;;;;;;;18.25;14.50;;;;;21.10;47.86;101516.91;5061671;28;45478;-65
2023/10/02 03:02:47;;;;;;;;;18.25;16.00;;;;;21.05;47.70;101518.94;5061853;28;45796;-65
2023/10/02 03:05:20;;;;;;;;;16.75;14.25;;;;;21.04;47.98;101516.34;5042376;28;45175;-65
2023/10/02 03:07:48;;;;;;;;;22.50;19.25;;;;;21.02;47.93;101513.75;5061425;28;45500;-65
2023/10/02 03:10:16;;;;;;;;;18.75;17.00;;;;;20.99;47.33;101502.31;5061522;28;45206;-65
2023/10/02 03:12:48;;;;;;;;;21.75;18.00;;;;;20.96;47.95;101506.00;5064505;28;45365;-65
2023/10/02 03:15:13;;;;;;;;;22.25;15.50;;;;;20.97;47.49;101510.41;5064389;28;45223;-65
2023/10/02 03:17:41;;;;;;;;;16.00;12.50;;;;;20.93;48.09;101507.00;5061492;28;45464;-65
2023/10/02 03:20:23;;;;;;;;;14.25;11.25;;;;;20.92;47.55;101505.28;5061574;28;45316;-65
2023/10/02 03:22:54;;;;;;;;;23.50;18.25;;;;;20.89;48.16;101508.09;5059341;28;45514;-65
2023/10/02 03:28:16;;;;;;;;;19.00;12.75;;;;;20.83;48.30;101503.03;5061514;28;45381;-65
2023/10/02 03:30:43;;;;;;;;;16.00;13.00;;;;;20.76;48.29;101494.41;5044577;28;46621;-65
2023/10/02 03:33:17;;;;;;;;;18.50;15.25;;;;;20.79;48.16;101501.41;5043064;28;45188;-65
2023/10/02 03:38:48;;;;;;;;;18.25;14.00;;;;;20.74;47.88;101495.41;5016078;28;45449;-66
2023/10/02 03:41:14;;;;;;;;;21.00;16.75;;;;;20.72;47.92;101492.81;5059715;28;45303;-66
2023/10/02 03:43:43;;;;;;;;;21.00;15.25;;;;;20.70;47.75;101496.47;5060169;28;45284;-66
2023/10/02 03:46:22;;;;;;;;;24.00;17.75;;;;;20.68;48.23;101493.88;5061451;28;45457;-66
2023/10/02 03:48:58;;;;;;;;;20.00;16.00;;;;;20.67;47.88;101499.28;5061260;28;45298;-65
2023/10/02 03:51:36;;;;;;;;;16.25;14.50;;;;;20.63;48.01;101490.53;5061022;28;45387;-65
2023/10/02 03:54:17;;;;;;;;;21.25;16.00;;;;;20.64;47.97;101494.94;5052480;28;45313;-66
2023/10/02 03:56:49;;;;;;;;;16.75;15.75;;;;;20.59;48.47;101492.47;5042612;28;45785;-65
2023/10/02 03:59:26;;;;;;;;;15.50;12.25;;;;;20.59;48.31;101492.47;5060885;28;45392;-65
2023/10/02 04:01:53;;;;;;;;;20.00;16.50;;;;;20.53;48.14;101487.41;5059777;28;46181;-65
2023/10/02 04:04:23;;;;;;;;;17.00;16.25;;;;;20.52;48.39;101487.47;5042813;28;45282;-65
2023/10/02 04:06:56;;;;;;;;;16.50;14.25;;;;;20.51;48.20;101481.25;5060760;28;45320;-65
2023/10/02 04:09:25;;;;;;;;;20.00;18.00;;;;;20.46;48.47;101476.16;5060751;28;45477;-66
2023/10/02 04:11:52;;;;;;;;;16.00;14.00;;;;;20.48;48.02;101480.53;5060296;28;46251;-66
2023/10/02 04:14:18;;;;;;;;;23.25;16.25;;;;;20.44;48.46;101477.16;5066765;28;45274;-66
2023/10/02 04:16:46;;;;;;;;;24.75;16.75;;;;;20.43;48.27;101483.41;5060294;28;45395;-66
2023/10/02 04:19:15;;;;;;;;;20.00;16.00;;;;;20.41;48.20;101478.13;5042534;28;46070;-65
2023/10/02 04:21:42;;;;;;;;;22.00;16.25;;;;;20.37;48.71;101484.53;5059111;28;47297;-65
2023/10/02 04:24:09;;;;;;;;;19.25;15.25;;;;;20.33;48.66;101477.59;5052281;28;45292;-66
2023/10/02 04:26:36;;;;;;;;;16.75;12.25;;;;;20.32;48.33;101478.53;5057742;28;45227;-65
2023/10/02 04:29:26;;;;;;;;;15.75;14.75;;;;;20.29;48.08;101482.22;5060495;28;45159;-65
2023/10/02 04:34:37;;;;;;;;;15.50;14.75;;;;;20.21;48.86;101468.31;5060308;28;45393;-65
2023/10/02 04:37:22;;;;;;;;;21.50;19.75;;;;;20.22;48.83;101470.06;5060307;28;45162;-65
2023/10/02 04:42:25;;;;;;;;;20.00;17.00;;;;;20.19;48.61;101474.66;5060027;28;45442;-66
2023/10/02 04:44:58;;;;;;;;;16.75;12.00;;;;;20.14;48.82;101472.22;5060145;28;45225;-66
2023/10/02 04:47:30;;;;;;;;;22.00;16.50;;;;;20.14;48.52;101478.41;5060462;28;45176;-65
2023/10/02 04:52:53;;;;;;;;;14.50;14.50;;;;;20.12;48.41;101480.28;5059914;28;45317;-66
2023/10/02 04:55:15;;;;;;;;;12.50;12.25;;;;;20.11;48.53;101477.66;5059685;28;45352;-65
2023/10/02 04:57:42;;;;;;;;;18.50;16.75;;;;;20.08;48.46;101469.78;5059839;28;45269;-65
2023/10/02 05:00:26;;;;;;;;;19.50;15.50;;;;;20.10;48.27;101478.59;5041722;28;45567;-65
2023/10/02 05:03:09;;;;;;;;;18.00;14.75;;;;;20.05;49.11;101469.91;5060061;28;45191;-65
2023/10/02 05:05:37;;;;;;;;;22.50;16.75;;;;;20.07;48.59;101476.06;5059727;28;45363;-65
2023/10/02 05:08:03;;;;;;;;;26.75;19.50;;;;;20.04;49.11;101476.19;5059807;28;45163;-65
2023/10/02 05:10:28;;;;;;;;;19.25;16.00;;;;;20.03;48.78;101469.13;5041473;28;45990;-65
2023/10/02 05:12:54;;;;;;;;;23.25;18.00;;;;;20.03;48.51;101469.13;5064440;28;45285;-65
2023/10/02 05:15:20;;;;;;;;;17.00;15.25;;;;;20.02;49.02;101468.25;5061739;28;45472;-65
2023/10/02 05:17:47;;;;;;;;;16.50;15.75;;;;;20.03;48.68;101472.66;5041329;28;45275;-65
2023/10/02 05:20:15;;;;;;;;;22.00;16.75;;;;;20.03;48.70;101474.47;5059047;28;45517;-66
2023/10/02 05:22:42;;;;;;;;;21.50;18.00;;;;;20.00;48.83;101464.78;5058926;28;45354;-70
2023/10/02 05:25:08;;;;;;;;;18.00;17.00;;;;;19.97;49.06;101459.56;5030648;28;45782;-70
2023/10/02 05:27:38;;;;;;;;;21.00;16.50;;;;;20.00;48.53;101469.25;5059403;28;45444;-70
2023/10/02 05:30:12;;;;;;;;;17.75;15.00;;;;;19.97;48.67;101465.78;5062566;28;45428;-72
2023/10/02 05:32:38;;;;;;;;;22.00;19.00;;;;;19.99;49.17;101471.06;5062446;28;45371;-67
2023/10/02 05:37:40;;;;;;;;;16.75;16.00;;;;;19.94;48.92;101473.91;5062196;28;45338;-69
2023/10/02 05:43:09;;;;;;;;;13.00;8.75;;;;;19.90;48.85;101476.75;5050849;28;45408;-70
2023/10/02 05:48:14;;;;;;;;;18.75;14.00;;;;;19.86;48.85;101470.72;5062082;28;45256;-65
2023/10/02 05:50:47;;;;;;;;;20.00;17.25;;;;;19.86;49.46;101483.16;5050405;28;45231;-66
2023/10/02 05:53:14;;;;;;;;;18.50;16.50;;;;;19.80;49.15;101473.59;5046618;28;48249;-66
2023/10/02 05:55:57;;;;;;;;;16.50;15.50;;;;;19.81;49.52;101480.66;5061934;28;45280;-64
2023/10/02 05:58:31;;;;;;;;;20.25;17.50;;;;;19.78;48.91;101475.44;5043992;28;45360;-64
2023/10/02 06:01:18;;;;;;;;;20.00;15.75;;;;;19.77;49.42;101474.59;5061862;28;45350;-65
2023/10/02 06:03:45;;;;;;;;;22.75;18.50;;;;;19.78;49.03;101470.97;5051122;28;45349;-65
2023/10/02 06:06:17;;;;;;;;;19.50;15.25;;;;;19.75;49.14;101470.25;5061861;28;45313;-65
2023/10/02 06:08:49;;;;;;;;;16.00;15.75;;;;;19.78;48.79;101470.13;5061987;28;45273;-66
2023/10/02 06:11:34;;;;;;;;;20.75;14.00;;;;;19.76;49.42;101470.19;5043223;28;45664;-67
2023/10/02 06:14:09;;;;;;;;;17.00;14.00;;;;;19.77;49.42;101465.72;5068205;28;46265;-66
2023/10/02 06:16:36;;;;;;;;;28.75;21.00;;;;;19.77;49.20;101466.59;5062078;28;45352;-66
2023/10/02 06:19:01;;;;;;;;;22.75;19.25;;;;;19.77;49.19;101473.69;5044010;28;45352;-66
2023/10/02 06:21:31;;;;;;;;;24.00;21.50;;;;;19.76;49.37;101467.53;5062045;28;45399;-64
2023/10/02 06:23:57;;;;;;;;;19.50;15.50;;;;;19.79;49.69;101467.38;5061462;28;47121;-66
2023/10/02 06:26:29;;;;;;;;;28.75;20.75;;;;;19.77;49.28;101469.25;5043802;28;45467;-66
2023/10/02 06:29:16;;;;;;;;;24.00;18.50;;;;;19.81;49.79;101478.00;5043853;28;45194;-68
2023/10/02 06:31:50;;;;;;;;;19.50;17.00;;;;;19.79;49.54;101474.53;5061489;28;45424;-67
2023/10/02 06:34:16;;;;;;;;;18.25;16.25;;;;;19.82;49.25;101482.38;5051965;28;47038;-67
2023/10/02 06:37:02;;;;;;;;;25.25;20.00;;;;;19.78;49.87;101481.63;5061363;28;45354;-67
2023/10/02 06:39:29;;;;;;;;;21.25;19.75;;;;;19.82;49.68;101493.03;5056096;28;45424;-67
2023/10/02 06:42:04;;;;;;;;;21.00;15.50;;;;;19.78;49.72;101481.63;5060257;28;45502;-67
2023/10/02 06:44:34;;;;;;;;;18.25;15.25;;;;;19.81;49.39;101488.66;5044130;28;45593;-67
2023/10/02 06:46:59;;;;;;;;;15.50;11.00;;;;;19.80;49.36;101487.78;5061065;28;45356;-67
2023/10/02 06:49:25;;;;;;;;;28.75;18.50;;;;;19.79;49.72;101493.19;5061596;28;45623;-69
2023/10/02 06:51:50;;;;;;;;;25.50;19.50;;;;;19.79;49.85;101496.72;5042286;28;45356;-68
2023/10/02 06:54:19;;;;;;;;;16.25;13.50;;;;;19.78;49.40;101491.44;5060923;28;55082;-68
2023/10/02 06:56:45;;;;;;;;;15.75;14.50;;;;;19.77;49.55;101495.94;5061311;28;45470;-68
2023/10/02 06:59:11;;;;;;;;;22.00;15.00;;;;;19.73;49.95;101486.28;5060496;28;45367;-68
2023/10/02 07:01:36;;;;;;;;;20.00;15.50;;;;;19.77;49.50;101492.38;5040075;28;45987;-68
2023/10/02 07:04:09;;;;;;;;;23.25;19.00;;;;;19.75;49.59;101487.09;5053499;28;45269;-68
2023/10/02 07:06:41;;;;;;;;;24.50;19.50;;;;;19.77;49.82;101495.94;5061412;28;45487;-68
2023/10/02 07:09:13;;;;;;;;;22.75;17.00;;;;;19.77;49.57;101493.25;5061445;28;45535;-68
2023/10/02 07:11:42;;;;;;;;;22.00;19.25;;;;;19.76;49.67;101488.84;5061485;28;45243;-68
2023/10/02 07:14:09;;;;;;;;;24.75;17.25;;;;;19.78;49.89;101491.44;5074493;28;46181;-68
2023/10/02 07:16:36;;;;;;;;;20.50;17.00;;;;;19.77;49.63;101487.94;5061281;28;45276;-68
2023/10/02 07:19:04;;;;;;;;;18.50;16.50;;;;;19.77;50.02;101487.94;5061499;28;45253;-68
2023/10/02 07:21:33;;;;;;;;;14.50;11.50;;;;;19.80;49.99;101494.94;5061430;28;45483;-68
2023/10/02 07:24:02;;;;;;;;;16.00;16.00;;;;;19.80;50.01;101486.94;5060004;28;45748;-68
2023/10/02 07:29:12;;;;;;;;;22.50;18.50;;;;;19.83;50.00;101492.16;5061144;28;45258;-68
2023/10/02 07:31:37;;;;;;;;;21.50;19.00;;;;;19.83;50.04;101493.97;5056368;28;45432;-68
2023/10/02 07:34:02;;;;;;;;;20.00;16.75;;;;;19.86;49.83;101493.81;5031679;28;47122;-68
2023/10/02 07:36:30;;;;;;;;;19.00;14.75;;;;;19.86;49.75;101488.50;5059864;28;45237;-68
2023/10/02 07:38:56;;;;;;;;;19.00;18.25;;;;;19.90;50.21;101495.44;5060917;28;45245;-68
2023/10/02 07:41:25;;;;;;;;;28.00;20.00;;;;;19.90;50.17;101492.75;5048020;28;45510;-68
2023/10/02 07:43:53;;;;;;;;;21.25;17.50;;;;;19.93;49.99;101487.31;5060279;28;46068;-68
2023/10/02 07:46:21;;;;;;;;;23.75;18.75;;;;;19.96;49.94;101493.38;5042878;28;45668;-68
2023/10/02 07:48:57;;;;;;;;;24.00;20.50;;;;;19.97;49.80;101486.25;5060941;28;45304;-68
2023/10/02 07:51:36;;;;;;;;;23.50;18.50;;;;;20.02;49.94;101491.41;5059865;28;45525;-68
2023/10/02 07:54:02;;;;;;;;;28.50;20.00;;;;;20.04;50.44;101492.22;5042189;28;47104;-68
2023/10/02 07:56:29;;;;;;;;;21.50;19.25;;;;;20.05;50.47;101486.81;5042223;28;45939;-68
2023/10/02 07:59:01;;;;;;;;;18.00;15.50;;;;;20.12;50.05;101492.75;5042679;28;45353;-68
2023/10/02 08:01:27;;;;;;;;;24.50;19.25;;;;;20.15;50.31;101497.97;5060653;28;45326;-68
2023/10/02 08:03:56;;;;;;;;;17.00;16.00;;;;;20.15;50.42;101489.97;5042632;28;48339;-68
2023/10/02 08:06:36;;;;;;;;;22.50;19.00;;;;;20.19;50.04;101491.56;5042357;28;45564;-68
2023/10/02 08:11:51;;;;;;;;;21.50;17.50;;;;;20.24;50.48;101488.69;5060532;28;45179;-68
2023/10/02 08:19:59;;;;;;;;;24.00;22.25;;;;;20.40;50.70;101504.88;5029119;28;45247;-68
2023/10/02 08:22:35;;;;;;;;;26.50;19.50;;;;;20.43;50.35;101497.63;5060296;28;45558;-68
2023/10/02 08:25:01;;;;;;;;;21.75;16.50;;;;;20.45;50.44;101493.09;5059029;28;45379;-68
2023/10/02 08:27:27;;;;;;;;;22.75;17.50;;;;;20.51;50.61;101488.41;5060258;28;45282;-68
2023/10/02 08:29:53;;;;;;;;;26.00;19.00;;;;;20.54;50.48;101497.16;5060359;28;45446;-68
2023/10/02 08:32:28;;;;;;;;;21.75;19.75;;;;;20.58;50.70;101488.06;5060295;28;45238;-68
2023/10/02 08:34:54;;;;;;;;;21.00;17.50;;;;;20.59;50.07;101481.81;5060093;28;45373;-68
2023/10/02 08:37:19;;;;;;;;;24.00;18.50;;;;;20.64;50.10;101492.28;5035905;28;45848;-68
2023/10/02 08:39:45;;;;;;;;;25.00;19.00;;;;;20.70;50.02;101489.31;5060763;28;45245;-68
2023/10/02 08:42:10;;;;;;;;;22.00;16.75;;;;;20.73;50.58;101486.56;5058458;28;50284;-68
2023/10/02 08:44:38;;;;;;;;;19.75;15.25;;;;;20.77;50.12;101489.97;5059869;28;45183;-68
2023/10/02 08:47:06;;;;;;;;;28.00;21.50;;;;;20.81;50.11;101494.22;5059979;28;45410;-67
2023/10/02 08:49:36;;;;;;;;;20.50;19.00;;;;;20.86;50.03;101486.84;5059977;28;45337;-67
2023/10/02 08:52:04;;;;;;;;;24.25;23.00;;;;;20.88;50.52;101481.44;5041888;28;45273;-68
2023/10/02 08:54:31;;;;;;;;;27.50;20.00;;;;;20.96;50.39;101492.66;5050723;28;45460;-67
2023/10/02 08:57:08;;;;;;;;;18.50;14.50;;;;;21.04;49.81;101493.16;5040975;28;45376;-67
2023/10/02 08:59:41;;;;;;;;;25.50;22.00;;;;;21.11;50.19;101485.72;5047095;28;45346;-68
2023/10/02 09:02:14;;;;;;;;;20.25;17.25;;;;;21.21;49.94;101486.16;5059683;28;45265;-67
2023/10/02 09:04:41;;;;;;;;;23.25;22.00;;;;;21.29;50.47;101483.97;5059690;28;45384;-68
2023/10/02 09:07:24;;;;;;;;;22.50;17.50;;;;;21.36;50.56;101473.88;5059535;28;45327;-68
2023/10/02 09:10:18;;;;;;;;;26.25;21.00;;;;;21.53;50.27;101481.94;5041798;28;45313;-67
2023/10/02 09:12:50;;;;;;;;;25.25;22.25;;;;;21.66;50.31;101476.91;5041496;28;45445;-68
2023/10/02 09:15:29;;;;;;;;;25.50;19.00;;;;;21.79;50.13;101482.50;5059311;28;46073;-67
2023/10/02 09:17:57;;;;;;;;;20.25;18.75;;;;;21.92;50.46;101482.75;5041472;28;45945;-67
2023/10/02 09:20:38;;;;;;;;;28.25;20.25;;;;;22.07;50.11;101479.31;5059628;28;45403;-67
2023/10/02 09:23:08;;;;;;;;;29.75;21.25;;;;;22.22;50.55;101474.09;5041007;28;45462;-68
2023/10/02 09:25:37;;;;;;;;;23.50;20.50;;;;;22.40;50.42;101483.00;5059228;28;46086;-68
2023/10/02 09:28:13;;;;;;;;;25.00;22.00;;;;;22.53;50.27;101480.56;5059522;28;45533;-68
2023/10/02 09:30:41;;;;;;;;;25.50;20.50;;;;;22.67;50.46;101478.00;5041326;28;45282;-68
2023/10/02 09:33:45;;;;;;;;;29.75;24.00;;;;;22.83;50.37;101474.50;5059251;28;45344;-68
2023/10/02 09:36:05;;;;;;;;;24.50;23.00;;;;;23.02;50.10;101471.69;5054453;28;46138;-68
2023/10/02 09:38:32;;;;;;;;;27.50;20.25;;;;;23.11;50.04;101463.13;5040785;28;45520;-67
2023/10/02 09:43:31;;;;;;;;;27.50;24.00;;;;;23.40;49.88;101463.34;5059335;28;45376;-68
2023/10/02 09:46:15;;;;;;;;;25.25;20.00;;;;;23.52;49.92;101469.78;5059193;28;47005;-68
2023/10/02 09:49:03;;;;;;;;;29.75;21.50;;;;;23.66;49.60;101463.63;5059281;28;45253;-68
2023/10/02 09:55:12;;;;;;;;;29.25;18.75;;;;;23.91;49.13;101460.44;5025295;28;45381;-68
2023/10/02 09:57:49;;;;;;;;;26.75;19.50;;;;;24.01;49.58;101458.94;5016593;28;45557;-68
2023/10/02 10:03:22;;;;;;;;;30.25;24.00;;;;;24.25;49.11;101454.84;5047090;28;45530;-68
2023/10/02 10:06:27;;;;;;;;;28.25;21.75;;;;;24.39;49.01;101448.63;5058635;28;45182;-68
2023/10/02 10:11:40;;;;;;;;;19.50;17.25;;;;;24.62;49.09;101444.53;5058853;28;45357;-68
2023/10/02 10:14:39;;;;;;;;;26.75;22.00;;;;;24.73;48.87;101442.06;5059948;28;45364;-68
2023/10/02 10:17:17;;;;;;;;;29.25;25.25;;;;;24.86;48.72;101436.75;5043230;28;45549;-68
2023/10/02 10:19:48;;;;;;;;;29.75;22.00;;;;;24.97;48.33;101436.94;5043964;28;47317;-68
2023/10/02 10:22:36;;;;;;;;;41.25;35.25;;;;;25.09;48.65;101429.94;5062020;28;45345;-68
2023/10/02 10:27:40;;;;;;;;;29.25;24.50;;;;;25.30;48.03;101433.00;5062275;28;45155;-68
2023/10/02 10:30:28;;;;;;;;;27.75;20.50;;;;;25.41;48.39;101429.66;5061948;28;46267;-68
2023/10/02 10:35:51;;;;;;;;;28.00;24.00;;;;;25.60;48.16;101412.28;5062112;28;45330;-69
2023/10/02 10:38:26;;;;;;;;;23.50;22.00;;;;;25.75;48.10;101413.94;5059643;28;45318;-69
2023/10/02 10:41:06;;;;;;;;;30.25;24.00;;;;;25.85;47.78;101406.09;5061603;28;45357;-69
2023/10/02 10:46:28;;;;;;;;;34.50;24.50;;;;;26.08;47.60;101412.63;5061869;28;45350;-70
2023/10/02 10:48:59;;;;;;;;;23.00;21.00;;;;;26.22;47.39;101408.94;5043645;28;45266;-69
2023/10/02 10:51:28;;;;;;;;;22.00;19.75;;;;;26.31;47.66;101396.66;5061608;28;46057;-69
2023/10/02 10:54:30;;;;;;;;;24.75;19.75;;;;;26.53;47.77;101408.63;5052489;28;45459;-68
2023/10/02 10:56:57;;;;;;;;;27.50;22.00;;;;;26.69;47.82;101400.28;5043103;28;45186;-69
2023/10/02 10:59:33;;;;;;;;;22.25;19.50;;;;;26.84;47.87;101395.66;5043283;28;45352;-68
2023/10/02 11:02:14;;;;;;;;;20.00;17.50;;;;;27.04;47.31;101389.69;5043495;28;47773;-69
2023/10/02 11:04:47;;;;;;;;;32.00;23.25;;;;;27.21;47.25;101376.78;5043389;28;45254;-69
2023/10/02 11:07:23;;;;;;;;;24.25;18.25;;;;;27.45;47.03;101382.19;5061374;28;45237;-69
2023/10/02 11:10:14;;;;;;;;;22.75;19.00;;;;;27.70;47.04;101381.16;5043255;28;45472;-69
2023/10/02 11:12:54;;;;;;;;;19.50;17.50;;;;;27.98;46.76;101373.59;5061519;28;45496;-69
2023/10/02 11:15:44;;;;;;;;;22.25;19.25;;;;;28.25;47.27;101371.59;5061276;28;45320;-69
2023/10/02 11:18:23;;;;;;;;;22.50;20.25;;;;;28.60;47.30;101357.09;5061293;28;45348;-69
2023/10/02 11:20:51;;;;;;;;;25.75;23.25;;;;;28.93;46.98;101364.31;5061415;28;45403;-69
2023/10/02 11:23:23;;;;;;;;;23.00;18.50;;;;;29.25;47.11;101362.63;5042765;28;47118;-69
2023/10/02 11:25:54;;;;;;;;;22.50;19.50;;;;;29.55;46.60;101351.06;5041936;28;45360;-69
2023/10/02 11:28:32;;;;;;;;;23.50;19.75;;;;;29.87;46.63;101349.28;5042877;28;45373;-67
2023/10/02 11:31:29;;;;;;;;;26.00;21.00;;;;;30.23;46.50;101355.19;5061222;28;45285;-69
2023/10/02 11:34:03;;;;;;;;;26.00;22.50;;;;;30.55;45.80;101340.66;5042515;28;47794;-69
2023/10/02 11:36:33;;;;;;;;;26.75;23.00;;;;;30.87;45.94;101343.16;5059223;28;45179;-69
2023/10/02 11:39:00;;;;;;;;;27.25;23.00;;;;;31.19;45.40;101338.50;5059850;28;45518;-69
2023/10/02 11:41:27;;;;;;;;;24.50;20.25;;;;;31.52;45.82;101336.31;5060623;28;45497;-69
2023/10/02 11:43:54;;;;;;;;;25.75;22.75;;;;;31.84;45.65;101346.03;5060233;28;46235;-69
2023/10/02 11:46:20;;;;;;;;;28.00;21.75;;;;;32.12;44.77;101352.34;5041855;28;45415;-69
2023/10/02 11:48:49;;;;;;;;;23.00;20.25;;;;;32.39;44.54;101340.69;5060872;28;45352;-69
2023/10/02 11:51:14;;;;;;;;;23.75;20.50;;;;;32.67;44.85;101343.41;5060539;28;45472;-69
2023/10/02 11:53:39;;;;;;;;;23.00;19.00;;;;;32.95;44.88;101346.09;5046108;28;46994;-67
2023/10/02 11:56:05;;;;;;;;;25.00;21.50;;;;;33.17;44.75;101339.34;5041678;28;45454;-68
2023/10/02 11:58:30;;;;;;;;;25.50;19.25;;;;;33.43;44.04;101332.28;5042826;28;45323;-68
2023/10/02 12:00:57;;;;;;;;;27.00;21.75;;;;;33.66;44.14;101335.34;5041819;28;45415;-67
2023/10/02 12:03:22;;;;;;;;;31.00;21.75;;;;;33.89;44.00;101327.53;5060567;28;45598;-69
2023/10/02 12:05:50;;;;;;;;;31.25;23.75;;;;;34.12;43.59;101325.06;5041883;28;45222;-69
2023/10/02 12:08:20;;;;;;;;;26.25;20.75;;;;;34.32;43.58;101320.22;5042547;28;45233;-70
2023/10/02 12:10:45;;;;;;;;;21.00;18.75;;;;;34.56;43.40;101315.06;5060134;28;45447;-69
2023/10/02 12:13:11;;;;;;;;;24.25;23.00;;;;;34.79;43.20;101326.19;5060523;28;46286;-69
2023/10/02 12:15:37;;;;;;;;;30.50;19.25;;;;;35.01;42.90;101321.13;5060321;28;45282;-69
2023/10/02 12:18:04;;;;;;;;;29.25;21.00;;;;;35.26;42.58;101316.56;5060675;28;45276;-69
2023/10/02 12:20:30;;;;;;;;;25.75;21.00;;;;;35.47;42.57;101311.44;5060178;28;45250;-69
2023/10/02 12:22:56;;;;;;;;;22.50;22.00;;;;;35.75;42.13;101312.91;5060159;28;45229;-67
2023/10/02 12:25:21;;;;;;;;;26.75;19.75;;;;;36.02;42.08;101306.22;5041793;28;45278;-67
2023/10/02 12:27:49;;;;;;;;;29.50;20.25;;;;;36.26;41.97;101307.97;5060521;28;45198;-67
2023/10/02 12:30:15;;;;;;;;;31.75;24.50;;;;;36.53;42.29;101297.63;5058977;28;45335;-67
2023/10/02 12:32:41;;;;;;;;;14.50;14.50;;;;;36.80;41.75;101292.66;5059977;28;46711;-69
2023/10/02 12:35:08;;;;;;;;;25.50;19.00;;;;;37.07;41.59;101299.50;5060263;28;45697;-67